KAEG

Double Eagle II Airport

Airport
ICAO code
KAEG
Summary
ICAO Region
NAM
ICAO Territory
Location

Albuquerque, New Mexico

Serving
Albuquerque
Elevation
5837 ft
Coordinates
35° 9' 24" N , 106° 47' 45" W
KCC
Airport RE
Hot and High Operations
Metar
KAEG 191250Z 02012KT 10SM CLR 06/01 A3016

Description

Double Eagle II Airport is a public airport located 7 nm northwest of the central business district of Albuquerque, a city in Bernalillo County, New Mexico.

Airport map

Aerial View

SKYbrary Partners:

Safety knowledge contributed by: